Time;durP1;ratioP1;P1;durP2;ratioP2;P2;SDS_P1;SDS_P2;PMS_P1;PMS_P2;Temp;Humidity;BMP_temperature;BMP_pressure;BME280_temperature;BME280_humidity;BME280_pressure;Samples;Min_cycle;Max_cycle;Signal;HPM_P1;HPM_P2
2023/11/16 00:01:50;;;;;;;7.93;3.13;;;;;;;5.53;100.00;97678.75;5041186;28;20387;-81
2023/11/16 00:04:17;;;;;;;4.78;3.20;;;;;;;5.49;100.00;97672.31;5041081;28;20395;-81
2023/11/16 00:06:45;;;;;;;8.35;3.33;;;;;;;5.49;100.00;97674.97;5041068;28;20875;-82
2023/11/16 00:09:12;;;;;;;5.83;3.27;;;;;;;5.51;100.00;97672.91;5040285;28;20395;-81
2023/11/16 00:11:40;;;;;;;3.70;2.90;;;;;;;5.47;100.00;97671.72;5040547;28;20886;-82
2023/11/16 00:14:06;;;;;;;5.40;3.00;;;;;;;5.40;100.00;97664.69;5041685;28;20903;-81
2023/11/16 00:16:33;;;;;;;4.55;2.70;;;;;;;5.35;100.00;97663.69;5040402;28;20400;-82
2023/11/16 00:19:00;;;;;;;7.47;2.85;;;;;;;5.30;100.00;97660.91;5041898;28;20502;-82
2023/11/16 00:21:26;;;;;;;5.15;2.92;;;;;;;5.27;100.00;97650.81;5046732;28;20425;-82
2023/11/16 00:23:53;;;;;;;4.13;2.55;;;;;;;5.24;100.00;97653.88;5040123;28;20890;-82
2023/11/16 00:26:21;;;;;;;5.88;3.00;;;;;;;5.21;100.00;97654.28;5040468;28;20399;-81
2023/11/16 00:28:48;;;;;;;10.80;3.90;;;;;;;5.17;100.00;97655.75;5045636;28;20395;-82
2023/11/16 00:31:15;;;;;;;6.10;3.50;;;;;;;5.15;100.00;97663.81;5045126;28;20840;-83
2023/11/16 00:33:45;;;;;;;5.90;3.20;;;;;;;5.11;100.00;97657.41;5043328;28;20465;-82
2023/11/16 00:36:12;;;;;;;4.70;3.35;;;;;;;5.12;100.00;97663.41;5039172;28;20407;-81
2023/11/16 00:38:38;;;;;;;6.30;3.23;;;;;;;5.17;100.00;97667.03;5039321;28;20399;-81
2023/11/16 00:41:07;;;;;;;9.73;3.40;;;;;;;5.21;100.00;97668.22;5039732;28;20402;-81
2023/11/16 00:43:34;;;;;;;4.40;3.20;;;;;;;5.28;100.00;97671.63;5039994;28;20414;-81
2023/11/16 00:46:01;;;;;;;5.15;3.20;;;;;;;5.37;100.00;97662.50;5038931;28;20402;-81
2023/11/16 00:48:27;;;;;;;4.43;3.38;;;;;;;5.43;100.00;97659.00;5038481;28;20402;-81
2023/11/16 00:50:53;;;;;;;6.18;3.50;;;;;;;5.43;100.00;97660.84;5038722;28;20391;-81
2023/11/16 00:53:20;;;;;;;8.25;3.65;;;;;;;5.44;100.00;97665.88;5038684;28;20423;-81
2023/11/16 00:55:49;;;;;;;5.95;3.40;;;;;;;5.45;100.00;97656.19;5038537;28;20399;-81
2023/11/16 00:58:16;;;;;;;5.47;3.30;;;;;;;5.42;100.00;97648.72;5038715;28;20399;-81
2023/11/16 01:00:42;;;;;;;7.88;3.63;;;;;;;5.36;100.00;97653.00;5037920;28;20867;-81
2023/11/16 01:03:09;;;;;;;10.15;3.72;;;;;;;5.33;100.00;97658.69;5037742;28;20438;-81
2023/11/16 01:05:36;;;;;;;6.45;3.60;;;;;;;5.30;100.00;97645.16;5037580;28;20406;-81
2023/11/16 01:08:03;;;;;;;8.63;3.47;;;;;;;5.25;100.00;97642.38;5037893;28;20883;-81
2023/11/16 01:10:29;;;;;;;6.67;3.30;;;;;;;5.22;100.00;97643.59;5038256;28;20403;-81
2023/11/16 01:12:56;;;;;;;14.35;3.90;;;;;;;5.20;100.00;97632.50;5038371;28;20835;-80
2023/11/16 01:15:25;;;;;;;5.68;3.17;;;;;;;5.22;100.00;97640.97;5037785;28;20453;-79
2023/11/16 01:17:52;;;;;;;5.38;2.90;;;;;;;5.25;100.00;97639.75;5037535;28;20399;-82
2023/11/16 01:20:18;;;;;;;4.10;2.70;;;;;;;5.29;100.00;97649.59;5037712;28;20395;-81
2023/11/16 01:22:50;;;;;;;3.90;2.80;;;;;;;5.32;100.00;97649.19;5037437;28;20391;-83
2023/11/16 01:25:17;;;;;;;9.70;3.25;;;;;;;5.34;100.00;97634.03;5038156;28;20403;-82
2023/11/16 01:27:44;;;;;;;5.78;3.30;;;;;;;5.37;100.00;97631.00;5037983;28;20402;-82
2023/11/16 01:30:12;;;;;;;5.77;2.97;;;;;;;5.40;100.00;97630.56;5038357;28;20888;-83
2023/11/16 01:32:39;;;;;;;10.52;3.92;;;;;;;5.38;100.00;97632.59;5037572;28;21029;-82
2023/11/16 01:35:06;;;;;;;5.40;3.10;;;;;;;5.39;100.00;97636.03;5038308;28;20747;-82
2023/11/16 01:37:33;;;;;;;12.52;3.60;;;;;;;5.38;100.00;97642.28;5037443;28;20435;-83
2023/11/16 01:40:00;;;;;;;14.00;4.30;;;;;;;5.36;100.00;97639.06;5038515;28;20406;-83
2023/11/16 01:42:27;;;;;;;8.43;3.83;;;;;;;5.40;100.00;97641.06;5038109;28;20451;-83
2023/11/16 01:44:53;;;;;;;7.10;3.50;;;;;;;5.44;100.00;97638.81;5039055;28;20444;-83
2023/11/16 01:47:19;;;;;;;4.60;3.10;;;;;;;5.48;100.00;97642.66;5037558;28;20479;-83
2023/11/16 01:49:47;;;;;;;5.20;3.20;;;;;;;5.53;100.00;97649.88;5038892;28;20410;-83
2023/11/16 01:52:14;;;;;;;6.95;2.80;;;;;;;5.56;100.00;97645.00;5043784;28;20463;-83
2023/11/16 01:54:41;;;;;;;5.23;3.13;;;;;;;5.61;100.00;97645.16;5046536;28;20399;-82
2023/11/16 01:57:08;;;;;;;8.60;3.00;;;;;;;5.65;100.00;97635.84;5044484;28;20427;-82
2023/11/16 01:59:37;;;;;;;8.52;3.80;;;;;;;5.66;100.00;97641.91;5037916;28;20402;-82
2023/11/16 02:02:05;;;;;;;9.43;3.83;;;;;;;5.60;100.00;97637.50;5038655;28;20406;-82
2023/11/16 02:04:34;;;;;;;15.85;4.43;;;;;;;5.55;100.00;97638.16;5037830;28;20427;-82
2023/11/16 02:07:03;;;;;;;6.22;3.70;;;;;;;5.52;100.00;97638.56;5037409;28;20399;-82
2023/11/16 02:09:29;;;;;;;12.23;4.38;;;;;;;5.44;100.00;97630.94;5037758;28;20474;-82
2023/11/16 02:11:55;;;;;;;11.20;3.70;;;;;;;5.39;100.00;97638.66;5037541;28;20883;-82
2023/11/16 02:14:22;;;;;;;11.43;3.95;;;;;;;5.31;100.00;97639.72;5038288;28;20423;-82
2023/11/16 02:16:49;;;;;;;7.90;3.58;;;;;;;5.26;100.00;97629.03;5038630;28;20402;-82
2023/11/16 02:19:27;;;;;;;9.70;4.50;;;;;;;5.21;100.00;97631.47;5037004;28;20490;-82
2023/11/16 02:21:54;;;;;;;11.80;3.80;;;;;;;5.20;100.00;97629.88;5036913;28;20395;-82
2023/11/16 02:24:22;;;;;;;6.23;3.33;;;;;;;5.21;100.00;97638.56;5037141;28;20403;-81
2023/11/16 02:26:48;;;;;;;6.13;3.20;;;;;;;5.25;100.00;97631.88;5036648;28;20434;-82
2023/11/16 02:29:14;;;;;;;9.93;3.58;;;;;;;5.30;100.00;97626.78;5037361;28;20434;-82
2023/11/16 02:31:41;;;;;;;6.53;3.47;;;;;;;5.36;100.00;97621.50;5036218;28;20401;-82
2023/11/16 02:34:07;;;;;;;5.53;3.42;;;;;;;5.42;100.00;97622.47;5036863;28;20464;-82
2023/11/16 02:36:34;;;;;;;4.30;2.85;;;;;;;5.48;100.00;97632.13;5036976;28;20398;-82
2023/11/16 02:39:01;;;;;;;4.57;2.90;;;;;;;5.52;100.00;97635.13;5036903;28;20407;-82
2023/11/16 02:41:34;;;;;;;7.18;3.25;;;;;;;5.55;100.00;97638.16;5036883;28;20403;-82
2023/11/16 02:44:00;;;;;;;5.38;3.05;;;;;;;5.59;100.00;97639.31;5036976;28;20443;-81
2023/11/16 02:46:28;;;;;;;5.15;3.22;;;;;;;5.63;100.00;97637.91;5035584;28;21424;-82
2023/11/16 02:48:56;;;;;;;4.33;3.00;;;;;;;5.67;100.00;97633.81;5037145;28;20943;-82
2023/11/16 02:51:22;;;;;;;15.05;4.30;;;;;;;5.67;100.00;97630.38;5036806;28;20426;-82
2023/11/16 02:53:48;;;;;;;14.27;4.93;;;;;;;5.63;100.00;97616.88;5036593;28;20510;-83
2023/11/16 02:56:15;;;;;;;18.13;4.40;;;;;;;5.67;100.00;97618.06;5037121;28;20391;-83
2023/11/16 02:58:43;;;;;;;7.07;4.18;;;;;;;5.70;100.00;97624.72;5038909;28;20418;-81
2023/11/16 03:01:09;;;;;;;8.30;3.53;;;;;;;5.70;100.00;97625.50;5040896;28;20405;-83
2023/11/16 03:03:37;;;;;;;16.25;4.60;;;;;;;5.68;100.00;97613.59;5039742;28;20407;-83
2023/11/16 03:06:03;;;;;;;15.90;5.15;;;;;;;5.70;100.00;97611.56;5041028;28;20391;-83
2023/11/16 03:08:30;;;;;;;15.13;4.40;;;;;;;5.70;100.00;97604.50;5041252;28;20399;-81
2023/11/16 03:11:00;;;;;;;9.48;3.50;;;;;;;5.72;100.00;97605.06;5040753;28;20490;-83
2023/11/16 03:13:27;;;;;;;6.72;3.60;;;;;;;5.73;100.00;97601.44;5041246;28;20413;-83
2023/11/16 03:15:54;;;;;;;9.38;3.40;;;;;;;5.73;100.00;97590.94;5041969;28;20482;-83
2023/11/16 03:18:21;;;;;;;7.55;3.20;;;;;;;5.75;100.00;97586.28;5041317;28;20395;-83
2023/11/16 03:20:48;;;;;;;5.03;3.13;;;;;;;5.75;100.00;97591.53;5040965;28;20399;-83
2023/11/16 03:23:14;;;;;;;5.70;3.40;;;;;;;5.73;100.00;97585.66;5041304;28;20426;-83
2023/11/16 03:25:42;;;;;;;9.25;3.33;;;;;;;5.73;100.00;97583.03;5041127;28;20402;-84
2023/11/16 03:28:09;;;;;;;6.15;3.17;;;;;;;5.74;100.00;97582.03;5041074;28;20418;-83
2023/11/16 03:30:35;;;;;;;15.40;4.33;;;;;;;5.74;100.00;97575.97;5041227;28;20471;-84
2023/11/16 03:33:02;;;;;;;14.30;4.43;;;;;;;5.73;100.00;97561.22;5042021;28;20454;-86
2023/11/16 03:35:29;;;;;;;15.40;4.60;;;;;;;5.71;100.00;97547.53;5042252;28;20395;-85
2023/11/16 03:37:55;;;;;;;8.90;4.10;;;;;;;5.70;100.00;97549.34;5045088;28;20433;-82
2023/11/16 03:40:21;;;;;;;8.63;3.97;;;;;;;5.69;100.00;97552.19;5043917;28;20403;-85
2023/11/16 03:42:47;;;;;;;4.63;3.30;;;;;;;5.66;100.00;97536.84;5049438;28;20399;-83
2023/11/16 03:45:13;;;;;;;3.42;2.90;;;;;;;5.67;100.00;97541.91;5044665;28;20391;-84
2023/11/16 03:47:40;;;;;;;6.60;3.40;;;;;;;5.68;100.00;97538.25;5039809;28;20395;-83
2023/11/16 03:50:10;;;;;;;13.60;4.20;;;;;;;5.68;100.00;97529.56;5039708;28;20406;-82
2023/11/16 03:52:36;;;;;;;14.05;4.43;;;;;;;5.66;100.00;97535.03;5040473;28;20892;-84
2023/11/16 03:55:03;;;;;;;19.80;5.28;;;;;;;5.65;100.00;97537.88;5040277;28;20395;-84
2023/11/16 03:57:29;;;;;;;10.68;4.25;;;;;;;5.68;100.00;97543.50;5040196;28;20463;-82
2023/11/16 03:59:55;;;;;;;8.48;3.63;;;;;;;5.68;100.00;97543.50;5040582;28;20438;-83
2023/11/16 04:02:22;;;;;;;6.65;3.45;;;;;;;5.69;100.00;97539.88;5040539;28;20410;-83
2023/11/16 04:04:48;;;;;;;4.47;3.00;;;;;;;5.71;100.00;97550.16;5040714;28;20957;-83
2023/11/16 04:07:17;;;;;;;6.63;2.90;;;;;;;5.71;100.00;97544.91;5040854;28;20406;-82
2023/11/16 04:09:43;;;;;;;7.77;3.50;;;;;;;5.71;100.00;97548.31;5040739;28;20903;-84
2023/11/16 04:12:09;;;;;;;8.10;3.47;;;;;;;5.70;100.00;97544.09;5041003;28;20410;-83
2023/11/16 04:14:39;;;;;;;6.10;3.07;;;;;;;5.71;100.00;97543.06;5046030;28;20476;-83
2023/11/16 04:17:09;;;;;;;8.50;3.53;;;;;;;5.69;100.00;97545.13;5040378;28;20395;-84
2023/11/16 04:19:36;;;;;;;17.20;4.97;;;;;;;5.68;100.00;97537.44;5041508;28;20431;-82
2023/11/16 04:22:03;;;;;;;16.23;5.00;;;;;;;5.67;100.00;97530.59;5040688;28;20422;-83
2023/11/16 04:24:31;;;;;;;18.73;5.10;;;;;;;5.66;100.00;97524.53;5039941;28;20775;-83
2023/11/16 04:26:57;;;;;;;11.32;4.40;;;;;;;5.69;100.00;97539.06;5047762;28;20418;-83
2023/11/16 04:29:23;;;;;;;8.70;4.20;;;;;;;5.70;100.00;97530.16;5039115;28;20485;-82
2023/11/16 04:31:49;;;;;;;10.90;3.80;;;;;;;5.70;100.00;97523.09;5038711;28;20852;-82
2023/11/16 04:34:15;;;;;;;7.60;3.73;;;;;;;5.70;100.00;97527.53;5038852;28;20457;-82
2023/11/16 04:36:41;;;;;;;9.52;4.50;;;;;;;5.70;100.00;97517.03;5039411;28;20425;-83
2023/11/16 04:39:08;;;;;;;11.70;4.53;;;;;;;5.69;100.00;97516.22;5039823;28;20935;-84
2023/11/16 04:41:36;;;;;;;9.32;3.75;;;;;;;5.70;100.00;97514.41;5039986;28;20669;-83
2023/11/16 04:44:04;;;;;;;5.13;3.35;;;;;;;5.69;100.00;97524.09;5039824;28;20872;-84
2023/11/16 04:46:31;;;;;;;4.45;3.00;;;;;;;5.70;100.00;97519.66;5039943;28;20518;-83
2023/11/16 04:48:57;;;;;;;5.57;3.25;;;;;;;5.68;100.00;97519.06;5040053;28;20403;-82
2023/11/16 04:51:24;;;;;;;5.85;3.08;;;;;;;5.68;100.00;97517.25;5039435;28;20399;-83
2023/11/16 04:53:51;;;;;;;9.50;2.97;;;;;;;5.69;100.00;97516.22;5040877;28;20443;-81
2023/11/16 04:56:17;;;;;;;6.43;2.70;;;;;;;5.68;100.00;97516.44;5040007;28;20429;-83
2023/11/16 04:58:45;;;;;;;5.47;2.60;;;;;;;5.69;100.00;97518.06;5040795;28;20399;-83
2023/11/16 05:01:14;;;;;;;4.07;2.72;;;;;;;5.69;100.00;97518.06;5040882;28;20399;-81
2023/11/16 05:03:44;;;;;;;6.00;2.90;;;;;;;5.67;100.00;97513.00;5039812;28;20879;-81
2023/11/16 05:06:10;;;;;;;9.75;4.53;;;;;;;5.63;100.00;97517.09;5038595;28;20853;-82
2023/11/16 05:08:37;;;;;;;10.07;4.30;;;;;;;5.59;100.00;97518.53;5038781;28;20455;-82
2023/11/16 05:11:03;;;;;;;7.63;3.70;;;;;;;5.56;100.00;97520.81;5037992;28;20407;-82
2023/11/16 05:13:29;;;;;;;4.60;3.10;;;;;;;5.49;100.00;97510.34;5026732;28;21000;-80
2023/11/16 05:15:57;;;;;;;6.80;3.20;;;;;;;5.45;100.00;97514.41;5042871;28;20407;-81
2023/11/16 05:18:23;;;;;;;9.83;3.50;;;;;;;5.41;100.00;97500.91;5040512;28;20484;-80
2023/11/16 05:20:50;;;;;;;12.43;3.80;;;;;;;5.38;100.00;97495.31;5042794;28;20395;-79
2023/11/16 05:23:17;;;;;;;10.00;3.78;;;;;;;5.36;100.00;97497.31;5041211;28;20404;-79
2023/11/16 05:25:44;;;;;;;7.60;3.43;;;;;;;5.33;100.00;97495.97;5041714;28;20477;-81
2023/11/16 05:28:11;;;;;;;5.85;3.35;;;;;;;5.33;100.00;97500.41;5041082;28;20415;-79
2023/11/16 05:30:38;;;;;;;9.45;3.88;;;;;;;5.30;100.00;97506.88;5038370;28;20403;-78
2023/11/16 05:33:05;;;;;;;5.72;3.28;;;;;;;5.31;100.00;97511.09;5040018;28;20422;-80
2023/11/16 05:35:32;;;;;;;17.23;4.35;;;;;;;5.31;100.00;97497.97;5041440;28;20411;-79
2023/11/16 05:37:58;;;;;;;15.15;4.63;;;;;;;5.34;100.00;97499.34;5039918;28;20431;-81
2023/11/16 05:40:26;;;;;;;16.38;4.70;;;;;;;5.38;100.00;97496.09;5040269;28;20490;-83
2023/11/16 05:42:53;;;;;;;16.65;4.78;;;;;;;5.42;100.00;97493.84;5040297;28;20418;-81
2023/11/16 05:45:19;;;;;;;18.15;4.85;;;;;;;5.45;100.00;97496.03;5040102;28;20427;-81
2023/11/16 05:47:45;;;;;;;7.93;4.10;;;;;;;5.47;100.00;97485.34;5037658;28;20438;-82
2023/11/16 05:50:13;;;;;;;8.57;3.85;;;;;;;5.48;100.00;97487.75;5039837;28;20624;-83
2023/11/16 05:52:39;;;;;;;4.82;3.40;;;;;;;5.48;100.00;97481.69;5036674;28;20803;-82
2023/11/16 05:55:06;;;;;;;7.85;3.63;;;;;;;5.48;100.00;97479.88;5036992;28;20403;-82
2023/11/16 05:57:32;;;;;;;8.40;3.60;;;;;;;5.46;100.00;97474.03;5036479;28;20446;-81
2023/11/16 05:59:59;;;;;;;7.97;4.10;;;;;;;5.44;100.00;97461.13;5038122;28;20403;-82
2023/11/16 06:02:26;;;;;;;8.87;4.23;;;;;;;5.43;100.00;97454.25;5040433;28;20399;-81
2023/11/16 06:04:52;;;;;;;6.00;3.33;;;;;;;5.42;100.00;97452.63;5042513;28;20422;-80
2023/11/16 06:07:19;;;;;;;10.60;3.80;;;;;;;5.41;100.00;97445.78;5039674;28;20891;-80
2023/11/16 06:09:46;;;;;;;6.75;3.38;;;;;;;5.41;100.00;97448.41;5041804;28;20422;-80
2023/11/16 06:12:15;;;;;;;8.83;3.60;;;;;;;5.40;100.00;97430.28;5038002;28;20466;-80
2023/11/16 06:14:41;;;;;;;8.93;3.40;;;;;;;5.40;100.00;97443.41;5034892;28;20454;-80
2023/11/16 06:17:08;;;;;;;6.38;3.17;;;;;;;5.38;100.00;97430.47;5039878;28;20391;-82
2023/11/16 06:19:34;;;;;;;6.22;3.10;;;;;;;5.34;100.00;97431.13;5040568;28;20494;-81
2023/11/16 06:22:00;;;;;;;5.95;3.10;;;;;;;5.31;100.00;97435.00;5041622;28;20403;-81
2023/11/16 06:24:27;;;;;;;9.13;3.35;;;;;;;5.28;100.00;97430.16;5041407;28;20403;-82
2023/11/16 06:26:53;;;;;;;18.65;4.15;;;;;;;5.28;100.00;97435.41;5040459;28;20402;-82
2023/11/16 06:29:20;;;;;;;13.73;4.65;;;;;;;5.30;100.00;97435.19;5037609;28;20402;-80
2023/11/16 06:31:46;;;;;;;9.63;4.47;;;;;;;5.34;100.00;97436.38;5038035;28;20483;-81
2023/11/16 06:34:13;;;;;;;9.77;4.45;;;;;;;5.37;100.00;97431.50;5037118;28;20534;-81
2023/11/16 06:36:41;;;;;;;9.35;3.90;;;;;;;5.38;100.00;97435.72;5042964;28;20407;-80
2023/11/16 06:39:07;;;;;;;15.73;4.35;;;;;;;5.38;100.00;97433.09;5036636;28;20957;-80
2023/11/16 06:41:36;;;;;;;11.38;4.70;;;;;;;5.38;100.00;97427.06;5032615;28;20400;-78
2023/11/16 06:44:05;;;;;;;7.28;3.88;;;;;;;5.37;100.00;97426.25;5036033;28;20895;-83
2023/11/16 06:46:33;;;;;;;9.52;4.15;;;;;;;5.36;100.00;97419.38;5038100;28;20418;-82
2023/11/16 06:48:59;;;;;;;10.93;3.88;;;;;;;5.34;100.00;97418.78;5037466;28;20430;-80
2023/11/16 06:51:26;;;;;;;6.30;3.53;;;;;;;5.32;100.00;97415.59;5037980;28;20883;-81
2023/11/16 06:53:52;;;;;;;13.63;4.23;;;;;;;5.30;100.00;97415.00;5038868;28;20471;-82
2023/11/16 06:56:18;;;;;;;7.30;3.53;;;;;;;5.30;100.00;97422.09;5042929;28;20451;-82
2023/11/16 06:58:47;;;;;;;8.38;3.70;;;;;;;5.28;100.00;97417.03;5038865;28;20391;-80
2023/11/16 07:01:13;;;;;;;14.38;4.38;;;;;;;5.28;100.00;97417.03;5041823;28;20910;-83
2023/11/16 07:03:39;;;;;;;5.95;3.47;;;;;;;5.27;100.00;97409.38;5036294;28;20494;-82
2023/11/16 07:06:06;;;;;;;7.55;3.53;;;;;;;5.27;100.00;97401.50;5035713;28;20438;-83
2023/11/16 07:08:32;;;;;;;6.75;3.42;;;;;;;5.29;100.00;97404.72;5036293;28;20399;-81
2023/11/16 07:10:58;;;;;;;6.00;3.40;;;;;;;5.32;100.00;97402.47;5035712;28;20407;-81
2023/11/16 07:13:25;;;;;;;8.13;3.60;;;;;;;5.34;100.00;97391.75;5036972;28;20422;-84
2023/11/16 07:15:53;;;;;;;5.85;3.53;;;;;;;5.37;100.00;97394.75;5035870;28;20419;-81
2023/11/16 07:18:19;;;;;;;7.20;4.13;;;;;;;5.38;100.00;97385.84;5037847;28;20406;-80
2023/11/16 07:20:45;;;;;;;6.43;3.60;;;;;;;5.40;100.00;97388.28;5036491;28;20399;-83
2023/11/16 07:23:11;;;;;;;9.05;3.30;;;;;;;5.42;100.00;97378.34;5036342;28;20446;-80
2023/11/16 07:25:38;;;;;;;4.13;3.00;;;;;;;5.44;100.00;97361.34;5035892;28;20478;-81
2023/11/16 07:28:08;;;;;;;7.20;3.40;;;;;;;5.47;100.00;97368.00;5036016;28;20403;-80
2023/11/16 07:30:35;;;;;;;6.20;3.40;;;;;;;5.48;100.00;97364.38;5036137;28;20844;-82
2023/11/16 07:33:03;;;;;;;7.47;3.33;;;;;;;5.49;100.00;97373.81;5036059;28;20438;-82
2023/11/16 07:35:29;;;;;;;8.27;3.93;;;;;;;5.50;100.00;97375.44;5035830;28;20449;-81
2023/11/16 07:37:59;;;;;;;8.82;3.63;;;;;;;5.50;100.00;97382.50;5036006;28;20400;-80
2023/11/16 07:40:25;;;;;;;7.18;3.97;;;;;;;5.53;100.00;97387.31;5037299;28;20880;-81
2023/11/16 07:42:51;;;;;;;9.05;3.70;;;;;;;5.55;100.00;97385.28;5040034;28;20414;-80
2023/11/16 07:45:17;;;;;;;6.20;3.25;;;;;;;5.59;100.00;97374.13;5039441;28;20399;-83
2023/11/16 07:47:47;;;;;;;7.45;3.53;;;;;;;5.65;100.00;97375.06;5041288;28;20429;-83
2023/11/16 07:50:15;;;;;;;7.25;3.17;;;;;;;5.71;100.00;97376.84;5041409;28;20453;-81
2023/11/16 07:52:43;;;;;;;5.97;3.22;;;;;;;5.76;100.00;97359.38;5041000;28;20403;-82
2023/11/16 07:55:10;;;;;;;7.50;3.80;;;;;;;5.81;100.00;97359.50;5040703;28;20403;-83
2023/11/16 07:57:37;;;;;;;5.03;3.17;;;;;;;5.85;100.00;97354.63;5041430;28;20395;-82
2023/11/16 08:00:16;;;;;;;3.92;2.70;;;;;;;5.90;100.00;97356.63;5041830;28;20403;-83
2023/11/16 08:05:31;;;;;;;11.40;3.63;;;;;;;5.94;100.00;97350.69;5041109;28;20454;-82
2023/11/16 08:07:57;;;;;;;6.63;3.22;;;;;;;5.98;100.00;97348.44;5042460;28;20435;-81
2023/11/16 08:10:24;;;;;;;7.60;3.30;;;;;;;6.03;100.00;97340.66;5042270;28;20398;-82
2023/11/16 08:12:53;;;;;;;6.60;3.50;;;;;;;6.07;100.00;97336.59;5040683;28;20387;-81
2023/11/16 08:15:23;;;;;;;5.25;2.67;;;;;;;6.12;100.00;97334.88;5041816;28;20399;-81
2023/11/16 08:17:52;;;;;;;4.63;2.70;;;;;;;6.16;100.00;97320.25;5042680;28;20478;-81
2023/11/16 08:20:22;;;;;;;4.90;2.65;;;;;;;6.21;100.00;97314.34;5041284;28;20398;-81
2023/11/16 08:22:50;;;;;;;6.32;2.80;;;;;;;6.26;100.00;97308.41;5040698;28;20399;-81
2023/11/16 08:25:18;;;;;;;7.20;2.78;;;;;;;6.32;100.00;97299.59;5039612;28;20399;-79
2023/11/16 08:27:46;;;;;;;5.10;2.58;;;;;;;6.38;100.00;97290.84;5038634;28;20445;-81
2023/11/16 08:30:13;;;;;;;5.55;2.40;;;;;;;6.47;100.00;97286.84;5040852;28;20466;-85
2023/11/16 08:32:40;;;;;;;4.35;2.67;;;;;;;6.53;100.00;97280.69;5044348;28;20415;-84
2023/11/16 08:35:06;;;;;;;5.97;2.60;;;;;;;6.59;100.00;97277.94;5041850;28;20427;-85
2023/11/16 08:37:32;;;;;;;5.07;2.30;;;;;;;6.68;100.00;97275.78;5041474;28;20895;-86
2023/11/16 08:40:00;;;;;;;2.20;2.00;;;;;;;6.77;100.00;97273.59;5040666;28;20768;-85
2023/11/16 08:42:27;;;;;;;2.65;1.88;;;;;;;6.84;100.00;97264.53;5040720;28;20402;-83
2023/11/16 08:44:53;;;;;;;6.65;2.50;;;;;;;6.90;100.00;97271.53;5040617;28;20410;-83
2023/11/16 08:47:20;;;;;;;6.18;2.65;;;;;;;6.92;100.00;97266.81;5040104;28;20747;-82
2023/11/16 08:49:49;;;;;;;6.38;2.67;;;;;;;6.93;100.00;97270.25;5040616;28;20449;-83
2023/11/16 08:52:17;;;;;;;7.45;2.63;;;;;;;6.99;100.00;97266.72;5041069;28;20867;-82
2023/11/16 08:54:44;;;;;;;4.95;2.25;;;;;;;7.02;100.00;97265.44;5040309;28;20521;-83
2023/11/16 08:57:11;;;;;;;4.28;2.22;;;;;;;7.05;100.00;97267.63;5045366;28;20410;-83
2023/11/16 08:59:58;;;;;;;9.13;3.08;;;;;;;7.10;100.00;97270.38;5040512;28;20450;-84
2023/11/16 09:02:23;;;;;;;6.27;2.40;;;;;;;7.17;100.00;97266.56;5040951;28;20526;-84
2023/11/16 09:04:50;;;;;;;4.75;2.22;;;;;;;7.23;100.00;97262.19;5039455;28;20407;-83
2023/11/16 09:07:16;;;;;;;3.22;1.90;;;;;;;7.29;100.00;97254.16;5033742;28;20926;-83
2023/11/16 09:09:45;;;;;;;19.10;3.17;;;;;;;7.31;100.00;97251.31;5038496;28;20410;-85
2023/11/16 09:12:13;;;;;;;10.38;2.40;;;;;;;7.33;100.00;97255.31;5038572;28;20406;-83
2023/11/16 09:14:40;;;;;;;4.40;2.00;;;;;;;7.38;100.00;97257.25;5038911;28;20451;-82
2023/11/16 09:17:16;;;;;;;3.20;2.10;;;;;;;7.41;100.00;97251.53;5039305;28;20493;-82
2023/11/16 09:19:43;;;;;;;5.70;1.88;;;;;;;7.46;100.00;97240.28;5039167;28;20399;-85
2023/11/16 09:22:09;;;;;;;3.45;1.70;;;;;;;7.47;100.00;97241.88;5039074;28;20407;-84
2023/11/16 09:24:39;;;;;;;9.93;2.70;;;;;;;7.37;100.00;97231.94;5043187;28;20469;-84
2023/11/16 09:27:06;;;;;;;6.43;2.35;;;;;;;7.38;100.00;97234.34;5043692;28;20422;-83
2023/11/16 09:29:38;;;;;;;3.70;1.90;;;;;;;7.46;100.00;97229.75;5040730;28;20513;-84
2023/11/16 09:32:05;;;;;;;3.40;2.03;;;;;;;7.47;100.00;97231.34;5039280;28;20474;-82
2023/11/16 09:34:31;;;;;;;3.10;1.80;;;;;;;7.50;100.00;97223.78;5039314;28;20415;-84
2023/11/16 09:37:00;;;;;;;3.42;1.63;;;;;;;7.53;100.00;97207.50;5039389;28;20439;-85
2023/11/16 09:39:26;;;;;;;10.35;2.60;;;;;;;7.40;100.00;97199.88;5038795;28;20410;-86
2023/11/16 09:41:54;;;;;;;9.63;2.77;;;;;;;7.28;100.00;97189.41;5039896;28;20398;-84
2023/11/16 09:44:26;;;;;;;7.28;2.10;;;;;;;7.37;100.00;97187.19;5039785;28;20403;-85
2023/11/16 09:47:03;;;;;;;12.73;3.72;;;;;;;7.31;100.00;97175.75;5040355;28;20421;-85
2023/11/16 09:49:30;;;;;;;6.17;2.33;;;;;;;7.39;100.00;97177.22;5040229;28;20399;-84
2023/11/16 09:51:59;;;;;;;10.18;3.33;;;;;;;7.33;100.00;97170.25;5041719;28;20395;-85
2023/11/16 09:54:28;;;;;;;8.35;2.47;;;;;;;7.37;100.00;97161.66;5040198;28;20446;-85
2023/11/16 09:56:55;;;;;;;4.97;2.53;;;;;;;7.42;100.00;97154.88;5042129;28;20395;-85
2023/11/16 09:59:34;;;;;;;2.80;1.90;;;;;;;7.49;100.00;97158.19;5040786;28;20399;-85
2023/11/16 10:02:10;;;;;;;3.10;1.70;;;;;;;7.53;100.00;97139.03;5041510;28;20429;-85
2023/11/16 10:04:41;;;;;;;4.65;1.80;;;;;;;7.57;100.00;97142.78;5037342;28;20922;-85
2023/11/16 10:07:16;;;;;;;11.05;2.80;;;;;;;7.56;100.00;97132.50;5040692;28;20395;-86
2023/11/16 10:09:43;;;;;;;5.70;2.30;;;;;;;7.55;100.00;97131.69;5041495;28;20478;-86
2023/11/16 10:12:11;;;;;;;2.83;1.95;;;;;;;7.56;100.00;97122.75;5041865;28;20397;-85
2023/11/16 10:14:40;;;;;;;11.60;2.67;;;;;;;7.51;100.00;97116.63;5044547;28;20415;-85
2023/11/16 10:17:08;;;;;;;11.82;2.90;;;;;;;7.43;100.00;97109.09;5043374;28;20791;-81
2023/11/16 10:19:34;;;;;;;6.00;2.55;;;;;;;7.45;100.00;97105.16;5040272;28;20402;-82
2023/11/16 10:22:01;;;;;;;11.27;3.15;;;;;;;7.45;100.00;97093.84;5043139;28;20418;-83
2023/11/16 10:24:27;;;;;;;20.42;3.70;;;;;;;7.33;100.00;97089.44;5043413;28;20425;-83
2023/11/16 10:26:54;;;;;;;20.58;5.20;;;;;;;7.18;100.00;97073.38;5041935;28;20431;-82
2023/11/16 10:29:20;;;;;;;8.10;3.63;;;;;;;7.34;100.00;97063.91;5043284;28;20403;-83
2023/11/16 10:31:47;;;;;;;15.20;3.60;;;;;;;7.28;100.00;97055.16;5041636;28;20411;-82
2023/11/16 10:34:15;;;;;;;12.45;3.35;;;;;;;7.28;100.00;97051.72;5039517;28;20491;-84
2023/11/16 10:36:44;;;;;;;10.43;3.13;;;;;;;7.36;100.00;97040.78;5040274;28;20468;-80
2023/11/16 10:39:12;;;;;;;5.35;2.35;;;;;;;7.41;100.00;97034.78;5037998;28;20426;-81
2023/11/16 10:41:39;;;;;;;7.93;2.80;;;;;;;7.38;100.00;97025.53;5037984;28;20407;-83
2023/11/16 10:44:07;;;;;;;12.45;2.90;;;;;;;7.39;100.00;97014.75;5037483;28;20581;-81
2023/11/16 10:46:34;;;;;;;7.50;2.22;;;;;;;7.39;100.00;97008.69;5036773;28;20409;-82
2023/11/16 10:49:00;;;;;;;12.05;2.60;;;;;;;7.32;100.00;97008.06;5038016;28;20740;-83
2023/11/16 10:51:29;;;;;;;6.60;2.47;;;;;;;7.36;100.00;96998.66;5037512;28;20403;-83
2023/11/16 10:54:01;;;;;;;7.22;2.22;;;;;;;7.37;100.00;96985.25;5037868;28;20419;-83
2023/11/16 10:56:28;;;;;;;6.35;2.63;;;;;;;7.40;100.00;96973.44;5036309;28;20483;-84
2023/11/16 10:58:55;;;;;;;8.48;2.45;;;;;;;7.43;100.00;96964.28;5037929;28;20737;-80
2023/11/16 11:01:23;;;;;;;6.47;2.55;;;;;;;7.41;100.00;96958.44;5037117;28;20422;-84
2023/11/16 11:03:50;;;;;;;4.13;2.22;;;;;;;7.49;100.00;96942.22;5038799;28;20395;-83
2023/11/16 11:06:18;;;;;;;3.78;2.00;;;;;;;7.54;100.00;96943.09;5037750;28;20437;-84
2023/11/16 11:08:48;;;;;;;5.03;2.00;;;;;;;7.63;100.00;96933.75;5037937;28;20410;-82
2023/11/16 11:11:24;;;;;;;2.88;2.13;;;;;;;7.63;100.00;96923.22;5036820;28;20406;-83
2023/11/16 11:13:54;;;;;;;9.43;3.20;;;;;;;7.60;100.00;96918.41;5037973;28;20427;-83
2023/11/16 11:16:21;;;;;;;8.50;2.80;;;;;;;7.56;100.00;96909.41;5037848;28;20894;-83
2023/11/16 11:18:51;;;;;;;18.10;3.80;;;;;;;7.31;100.00;96907.22;5042465;28;20466;-83
2023/11/16 11:21:20;;;;;;;13.80;3.60;;;;;;;7.36;100.00;96901.25;5042223;28;20442;-84
2023/11/16 11:23:59;;;;;;;8.50;2.70;;;;;;;7.54;100.00;96885.16;5040906;28;20406;-85
2023/11/16 11:26:36;;;;;;;4.50;2.50;;;;;;;7.76;100.00;96864.88;5040733;28;20482;-85
2023/11/16 11:29:04;;;;;;;5.22;2.38;;;;;;;8.04;100.00;96860.47;5040275;28;20441;-83
2023/11/16 11:31:38;;;;;;;9.23;2.53;;;;;;;8.16;100.00;96858.47;5041295;28;20399;-83
2023/11/16 11:34:11;;;;;;;4.18;1.90;;;;;;;8.36;100.00;96848.16;5042434;28;20430;-82
2023/11/16 11:36:41;;;;;;;7.50;1.83;;;;;;;8.42;100.00;96854.28;5041543;28;20403;-83